Time;durP1;ratioP1;P1;durP2;ratioP2;P2;SDS_P1;SDS_P2;PMS_P1;PMS_P2;Temp;Humidity;BMP_temperature;BMP_pressure;BME280_temperature;BME280_humidity;BME280_pressure;Samples;Min_cycle;Max_cycle;Signal;HPM_P1;HPM_P2
2021/12/21 00:00:02;;;;;;;11.13;3.35;;;;;;;;;;5017348;28;20099;-26
2021/12/21 00:02:28;;;;;;;9.32;2.22;;;;;;;;;;5000185;28;20496;-26
2021/12/21 00:04:54;;;;;;;11.27;1.83;;;;;;;;;;5017483;28;20034;-26
2021/12/21 00:07:20;;;;;;;8.02;1.50;;;;;;;;;;5017098;28;20029;-27
2021/12/21 00:09:47;;;;;;;7.27;1.97;;;;;;;;;;4999841;28;20030;-27
2021/12/21 00:12:16;;;;;;;12.52;2.28;;;;;;;;;;5017218;28;20468;-27
2021/12/21 00:14:58;;;;;;;8.80;2.17;;;;;;;;;;5016980;28;20030;-26
2021/12/21 00:25:11;;;;;;;11.95;2.35;;;;;;;;;;5016891;28;20420;-27
2021/12/21 00:27:37;;;;;;;16.60;2.05;;;;;;;;;;5016737;28;20034;-27
2021/12/21 00:30:04;;;;;;;10.05;1.98;;;;;;;;;;5016719;28;20053;-26
2021/12/21 00:32:30;;;;;;;12.07;2.05;;;;;;;;;;5016777;28;20037;-26
2021/12/21 00:34:57;;;;;;;8.10;1.88;;;;;;;;;;5016812;28;20084;-27
2021/12/21 00:37:26;;;;;;;6.85;1.90;;;;;;;;;;5016655;28;20358;-27
2021/12/21 00:39:53;;;;;;;9.70;1.50;;;;;;;;;;4999251;28;20036;-26
2021/12/21 00:42:19;;;;;;;9.55;2.45;;;;;;;;;;4999239;28;20365;-27
2021/12/21 00:44:46;;;;;;;7.13;1.45;;;;;;;;;;5000013;28;20038;-27
2021/12/21 00:47:14;;;;;;;9.60;1.65;;;;;;;;;;5016668;28;20411;-27
2021/12/21 00:49:45;;;;;;;12.02;1.73;;;;;;;;;;5016424;28;20512;-26
2021/12/21 00:52:12;;;;;;;6.32;1.60;;;;;;;;;;5016283;28;20504;-27
2021/12/21 00:54:38;;;;;;;7.90;1.63;;;;;;;;;;5016492;28;20034;-27
2021/12/21 00:57:04;;;;;;;9.20;1.40;;;;;;;;;;5016224;28;20504;-27
2021/12/21 00:59:31;;;;;;;9.27;1.60;;;;;;;;;;4999042;28;20018;-27
2021/12/21 01:01:57;;;;;;;8.63;1.80;;;;;;;;;;5015689;28;20092;-26
2021/12/21 01:04:30;;;;;;;5.65;1.80;;;;;;;;;;5015910;28;20068;-27
2021/12/21 01:12:03;;;;;;;10.05;2.22;;;;;;;;;;5016328;28;20025;-26
2021/12/21 01:17:31;;;;;;;9.15;2.33;;;;;;;;;;5000318;28;20390;-27
2021/12/21 01:20:07;;;;;;;8.68;1.52;;;;;;;;;;5015811;28;20342;-27
2021/12/21 01:25:34;;;;;;;6.07;2.00;;;;;;;;;;5016045;28;20037;-26
2021/12/21 01:30:52;;;;;;;9.23;1.38;;;;;;;;;;5015551;28;20062;-26
2021/12/21 01:36:12;;;;;;;7.80;1.60;;;;;;;;;;5015842;28;20527;-26
2021/12/21 01:38:50;;;;;;;7.32;1.70;;;;;;;;;;5015780;28;20097;-27
2021/12/21 01:41:29;;;;;;;10.02;2.15;;;;;;;;;;5015404;28;20031;-27
2021/12/21 01:44:11;;;;;;;6.57;1.67;;;;;;;;;;5015375;28;20084;-27
2021/12/21 01:49:37;;;;;;;7.10;1.67;;;;;;;;;;5015390;28;20041;-26
2021/12/21 01:52:05;;;;;;;6.93;1.52;;;;;;;;;;4997864;28;20044;-27
2021/12/21 01:54:31;;;;;;;6.85;1.55;;;;;;;;;;5015160;28;20109;-27
2021/12/21 01:56:57;;;;;;;7.25;1.48;;;;;;;;;;5015172;28;20049;-27
2021/12/21 01:59:23;;;;;;;5.40;1.70;;;;;;;;;;5015402;28;20421;-26
2021/12/21 02:01:50;;;;;;;8.93;1.38;;;;;;;;;;5015246;28;20048;-27
2021/12/21 02:04:17;;;;;;;8.07;1.97;;;;;;;;;;5014909;28;20133;-27
2021/12/21 02:06:44;;;;;;;9.15;1.55;;;;;;;;;;5015006;28;20038;-27
2021/12/21 02:09:11;;;;;;;11.60;1.70;;;;;;;;;;5015239;28;20026;-27
2021/12/21 02:11:37;;;;;;;4.97;1.40;;;;;;;;;;5015118;28;20436;-27
2021/12/21 02:14:06;;;;;;;6.25;1.50;;;;;;;;;;5014208;28;20418;-27
2021/12/21 02:16:42;;;;;;;9.13;1.38;;;;;;;;;;5015066;28;20465;-27
2021/12/21 02:19:19;;;;;;;7.57;1.35;;;;;;;;;;4999011;28;20089;-26
2021/12/21 02:21:51;;;;;;;9.02;1.27;;;;;;;;;;5015014;28;20349;-26
2021/12/21 02:24:22;;;;;;;6.68;1.92;;;;;;;;;;5014800;28;20445;-26
2021/12/21 02:27:07;;;;;;;8.45;1.52;;;;;;;;;;5015043;28;20034;-26
2021/12/21 02:29:35;;;;;;;4.20;1.38;;;;;;;;;;5014767;28;20034;-27
2021/12/21 02:32:01;;;;;;;5.32;1.33;;;;;;;;;;5014573;28;20034;-27
2021/12/21 02:34:27;;;;;;;7.73;1.83;;;;;;;;;;5014914;28;20081;-26
2021/12/21 02:36:55;;;;;;;7.97;1.30;;;;;;;;;;5014896;28;20408;-27
2021/12/21 02:39:22;;;;;;;5.95;1.02;;;;;;;;;;5014578;28;20115;-27
2021/12/21 02:41:48;;;;;;;7.75;1.20;;;;;;;;;;5014552;28;20026;-27
2021/12/21 02:44:14;;;;;;;7.43;1.43;;;;;;;;;;4997286;28;20041;-26
2021/12/21 02:46:42;;;;;;;4.82;2.00;;;;;;;;;;4997255;28;20280;-27
2021/12/21 02:49:08;;;;;;;;;;;;;;;;;;5015005;28;20054;-27
2021/12/21 02:51:34;;;;;;;11.50;1.63;;;;;;;;;;5014475;28;19920;-26
2021/12/21 02:54:00;;;;;;;5.10;1.40;;;;;;;;;;5014409;28;20026;-27
2021/12/21 02:56:26;;;;;;;5.07;1.05;;;;;;;;;;5014409;28;20121;-27
2021/12/21 02:58:52;;;;;;;7.53;1.40;;;;;;;;;;5014642;28;20026;-27
2021/12/21 03:01:19;;;;;;;5.55;1.55;;;;;;;;;;5014624;28;20025;-27
2021/12/21 03:03:45;;;;;;;5.82;1.35;;;;;;;;;;5014093;28;20157;-27
2021/12/21 03:06:30;;;;;;;6.35;1.25;;;;;;;;;;5014690;28;20026;-27
2021/12/21 03:08:58;;;;;;;4.38;1.23;;;;;;;;;;5014687;28;20030;-27
2021/12/21 03:12:12;;;;;;;4.65;1.42;;;;;;;;;;5014596;28;20038;-27
2021/12/21 03:14:11;;;;;;;;;;;;;;;;;;5007393;28;20037;-26
2021/12/21 03:16:38;;;;;;;5.47;1.30;;;;;;;;;;5014244;28;19910;-27
2021/12/21 03:19:05;;;;;;;;;;;;;;;;;;5014643;28;20026;-27
2021/12/21 03:21:32;;;;;;;4.97;1.30;;;;;;;;;;5014537;28;20260;-27
2021/12/21 03:23:58;;;;;;;8.55;1.55;;;;;;;;;;5014460;28;20033;-27
2021/12/21 03:26:24;;;;;;;6.43;1.60;;;;;;;;;;5018001;28;20111;-26
2021/12/21 03:28:51;;;;;;;5.35;1.33;;;;;;;;;;5000659;28;20421;-26
2021/12/21 03:31:17;;;;;;;4.45;1.00;;;;;;;;;;5017858;28;20030;-26
2021/12/21 03:33:44;;;;;;;4.20;1.48;;;;;;;;;;5017724;28;20036;-27
2021/12/21 03:36:10;;;;;;;3.08;0.98;;;;;;;;;;5017812;28;20022;-27
2021/12/21 03:38:38;;;;;;;6.70;1.90;;;;;;;;;;5000457;28;20113;-27
2021/12/21 03:41:10;;;;;;;8.05;1.77;;;;;;;;;;5017584;28;20057;-27
2021/12/21 03:43:36;;;;;;;5.82;1.55;;;;;;;;;;5000229;28;20038;-27
2021/12/21 03:46:11;;;;;;;7.00;1.60;;;;;;;;;;5000300;28;20125;-27
2021/12/21 03:48:41;;;;;;;5.45;1.45;;;;;;;;;;5017812;28;20029;-26
2021/12/21 03:51:07;;;;;;;4.90;1.00;;;;;;;;;;5017402;28;20084;-27
2021/12/21 03:53:33;;;;;;;5.55;1.20;;;;;;;;;;5017354;28;20354;-26
2021/12/21 03:59:05;;;;;;;4.60;1.15;;;;;;;;;;4976834;28;20042;-27
2021/12/21 04:01:31;;;;;;;9.67;1.57;;;;;;;;;;4976664;28;20033;-26
2021/12/21 04:03:57;;;;;;;10.95;1.52;;;;;;;;;;4995408;28;20053;-27
2021/12/21 04:06:23;;;;;;;4.90;1.15;;;;;;;;;;5017463;28;20350;-27
2021/12/21 04:08:49;;;;;;;5.43;1.08;;;;;;;;;;4999834;28;20113;-27
2021/12/21 04:11:16;;;;;;;4.77;1.40;;;;;;;;;;5017143;28;20345;-27
2021/12/21 04:13:42;;;;;;;9.05;1.60;;;;;;;;;;4999652;28;20045;-27
2021/12/21 04:16:08;;;;;;;7.88;1.55;;;;;;;;;;4999721;28;20022;-27
2021/12/21 04:18:37;;;;;;;5.30;1.48;;;;;;;;;;5017018;28;20026;-27
2021/12/21 04:21:04;;;;;;;4.18;1.48;;;;;;;;;;5016891;28;20426;-27
2021/12/21 04:23:30;;;;;;;5.18;1.75;;;;;;;;;;5016828;28;20049;-26
2021/12/21 04:25:56;;;;;;;4.90;1.40;;;;;;;;;;5016837;28;20038;-27
2021/12/21 04:28:22;;;;;;;4.25;1.33;;;;;;;;;;5016898;28;20032;-27
2021/12/21 04:30:49;;;;;;;6.13;1.38;;;;;;;;;;5016809;28;20033;-27
2021/12/21 04:33:15;;;;;;;3.92;1.10;;;;;;;;;;5016613;28;20026;-26
2021/12/21 04:35:41;;;;;;;5.05;1.38;;;;;;;;;;5016242;28;20361;-27
2021/12/21 04:38:21;;;;;;;4.95;1.45;;;;;;;;;;5016301;28;20087;-26
2021/12/21 04:40:50;;;;;;;5.97;1.38;;;;;;;;;;5016784;28;20112;-27
2021/12/21 04:43:17;;;;;;;6.35;1.73;;;;;;;;;;4999071;28;20108;-27
2021/12/21 04:45:43;;;;;;;4.77;1.60;;;;;;;;;;5016361;28;20030;-27
2021/12/21 04:48:09;;;;;;;6.78;1.50;;;;;;;;;;5016340;28;20252;-26
2021/12/21 04:50:36;;;;;;;5.10;1.50;;;;;;;;;;5016301;28;20033;-27
2021/12/21 04:53:02;;;;;;;10.73;1.48;;;;;;;;;;5016058;28;20025;-27
2021/12/21 04:55:28;;;;;;;6.60;1.98;;;;;;;;;;5016144;28;20124;-27
2021/12/21 04:57:56;;;;;;;4.47;1.35;;;;;;;;;;5015985;28;20046;-26
2021/12/21 05:00:23;;;;;;;5.88;1.02;;;;;;;;;;4998718;28;20355;-26
2021/12/21 05:02:49;;;;;;;8.65;1.52;;;;;;;;;;4998375;28;20046;-26
2021/12/21 05:05:15;;;;;;;7.47;1.42;;;;;;;;;;5016059;28;20093;-26
2021/12/21 05:07:46;;;;;;;6.67;1.67;;;;;;;;;;5016066;28;20356;-26
2021/12/21 05:10:13;;;;;;;6.53;1.15;;;;;;;;;;4998493;28;20129;-26
2021/12/21 05:12:40;;;;;;;4.88;1.00;;;;;;;;;;5015593;28;20041;-26
2021/12/21 05:15:06;;;;;;;6.40;1.52;;;;;;;;;;5015409;28;20453;-26
2021/12/21 05:17:33;;;;;;;9.20;1.80;;;;;;;;;;5015331;28;20366;-26
2021/12/21 05:19:59;;;;;;;7.40;1.63;;;;;;;;;;5015697;28;20334;-26
2021/12/21 05:22:29;;;;;;;8.10;1.23;;;;;;;;;;5015337;28;20030;-26
2021/12/21 05:24:55;;;;;;;9.10;1.80;;;;;;;;;;5015445;28;20365;-26
2021/12/21 05:27:23;;;;;;;7.25;1.55;;;;;;;;;;4997947;28;20033;-26
2021/12/21 05:29:49;;;;;;;8.90;1.92;;;;;;;;;;5015107;28;20453;-26
2021/12/21 05:32:16;;;;;;;11.00;1.58;;;;;;;;;;5015229;28;20415;-26
2021/12/21 05:34:42;;;;;;;13.88;1.73;;;;;;;;;;5015353;28;20022;-27
2021/12/21 05:37:08;;;;;;;6.82;1.48;;;;;;;;;;5015473;28;20130;-27
2021/12/21 05:39:50;;;;;;;10.07;1.83;;;;;;;;;;5015094;28;20041;-26
2021/12/21 05:42:16;;;;;;;11.13;2.05;;;;;;;;;;5015301;28;20033;-26
2021/12/21 05:44:42;;;;;;;8.48;1.92;;;;;;;;;;5015008;28;20121;-26
2021/12/21 05:47:08;;;;;;;12.88;1.60;;;;;;;;;;5014720;28;20097;-27
2021/12/21 05:49:35;;;;;;;6.53;1.55;;;;;;;;;;5014004;28;20476;-26
2021/12/21 05:52:01;;;;;;;9.68;2.00;;;;;;;;;;5014667;28;20032;-27
2021/12/21 05:54:27;;;;;;;6.83;1.70;;;;;;;;;;5014784;28;20034;-26
2021/12/21 05:56:53;;;;;;;6.63;1.27;;;;;;;;;;5014756;28;20034;-26
2021/12/21 05:59:19;;;;;;;7.38;1.98;;;;;;;;;;5015042;28;20103;-26
2021/12/21 06:01:46;;;;;;;9.63;2.08;;;;;;;;;;4996894;28;20037;-26
2021/12/21 06:04:12;;;;;;;8.70;1.60;;;;;;;;;;5014521;28;20042;-25
2021/12/21 06:06:39;;;;;;;14.18;1.52;;;;;;;;;;4997327;28;20416;-26
2021/12/21 06:09:08;;;;;;;12.70;2.00;;;;;;;;;;5014695;28;20026;-26
2021/12/21 06:11:41;;;;;;;9.38;2.05;;;;;;;;;;5014500;28;20050;-26
2021/12/21 06:26:53;;;;;;;14.45;2.25;;;;;;;;;;5014441;28;20045;-26
2021/12/21 06:29:19;;;;;;;11.37;2.03;;;;;;;;;;4996903;28;20120;-26
2021/12/21 06:31:45;;;;;;;9.95;2.00;;;;;;;;;;4996658;28;20472;-26
2021/12/21 06:34:12;;;;;;;13.60;1.63;;;;;;;;;;5014167;28;20365;-26
2021/12/21 06:36:38;;;;;;;10.65;1.63;;;;;;;;;;5014099;28;20042;-27
2021/12/21 06:39:07;;;;;;;11.55;1.77;;;;;;;;;;5014094;28;20026;-27
2021/12/21 06:41:35;;;;;;;5.25;1.60;;;;;;;;;;4996492;28;20044;-26
2021/12/21 06:44:03;;;;;;;9.23;2.40;;;;;;;;;;5013775;28;20083;-26
2021/12/21 06:51:58;;;;;;;9.90;1.70;;;;;;;;;;5013673;28;20040;-26
2021/12/21 06:54:24;;;;;;;10.00;2.17;;;;;;;;;;5013542;28;20505;-26
2021/12/21 06:56:50;;;;;;;19.27;1.65;;;;;;;;;;5013783;28;20049;-26
2021/12/21 06:59:16;;;;;;;11.10;2.00;;;;;;;;;;5014311;28;20030;-26
2021/12/21 07:01:43;;;;;;;12.77;2.95;;;;;;;;;;5000601;28;20519;-27
2021/12/21 07:04:10;;;;;;;9.27;1.80;;;;;;;;;;5017733;28;20386;-27
2021/12/21 07:06:37;;;;;;;11.55;1.98;;;;;;;;;;5017999;28;20045;-27
2021/12/21 07:09:11;;;;;;;12.68;2.42;;;;;;;;;;5018043;28;20033;-27
2021/12/21 07:11:46;;;;;;;13.73;2.65;;;;;;;;;;5017259;28;20402;-27
2021/12/21 07:19:44;;;;;;;8.80;1.67;;;;;;;;;;5017334;28;20060;-27
2021/12/21 07:22:11;;;;;;;10.10;1.80;;;;;;;;;;5016832;28;20041;-27
2021/12/21 07:24:37;;;;;;;11.32;2.55;;;;;;;;;;5016996;28;20081;-26
2021/12/21 07:27:04;;;;;;;10.48;1.75;;;;;;;;;;4999508;28;20354;-27
2021/12/21 07:29:30;;;;;;;6.65;1.70;;;;;;;;;;5017001;28;20053;-27
2021/12/21 07:31:57;;;;;;;11.18;2.20;;;;;;;;;;5016776;28;20095;-26
2021/12/21 07:34:23;;;;;;;8.52;1.92;;;;;;;;;;4999678;28;20492;-26
2021/12/21 07:36:49;;;;;;;11.77;2.22;;;;;;;;;;5017032;28;20030;-26
2021/12/21 07:39:17;;;;;;;9.80;1.73;;;;;;;;;;5017298;28;20099;-26
2021/12/21 07:41:44;;;;;;;17.63;2.97;;;;;;;;;;5017468;28;20026;-26
2021/12/21 07:44:10;;;;;;;16.98;2.58;;;;;;;;;;5017180;28;20432;-26
2021/12/21 07:46:40;;;;;;;9.47;1.83;;;;;;;;;;4999856;28;20041;-26
2021/12/21 07:49:06;;;;;;;10.40;1.63;;;;;;;;;;4999910;28;20480;-26
2021/12/21 07:51:33;;;;;;;11.00;2.20;;;;;;;;;;5017037;28;20471;-26
2021/12/21 07:53:59;;;;;;;18.98;3.00;;;;;;;;;;4999766;28;20034;-26
2021/12/21 07:56:25;;;;;;;12.83;2.30;;;;;;;;;;5016979;28;20101;-26
2021/12/21 07:58:52;;;;;;;11.37;2.03;;;;;;;;;;5017002;28;20033;-26
2021/12/21 08:01:18;;;;;;;13.30;2.60;;;;;;;;;;4999655;28;20361;-26
2021/12/21 08:03:45;;;;;;;8.63;2.10;;;;;;;;;;5016827;28;20467;-27
2021/12/21 08:06:12;;;;;;;9.00;2.77;;;;;;;;;;4999600;28;20188;-27
2021/12/21 08:08:42;;;;;;;10.82;2.95;;;;;;;;;;5016640;28;20269;-25
2021/12/21 08:11:15;;;;;;;11.18;2.00;;;;;;;;;;5015667;28;20026;-25
2021/12/21 08:13:43;;;;;;;19.15;3.00;;;;;;;;;;5016370;28;20084;-25
2021/12/21 08:16:10;;;;;;;15.68;2.45;;;;;;;;;;4983428;28;20037;-26
2021/12/21 08:18:36;;;;;;;7.68;1.83;;;;;;;;;;4999277;28;20026;-26
2021/12/21 08:21:03;;;;;;;7.13;1.85;;;;;;;;;;5016687;28;20030;-26
2021/12/21 08:23:29;;;;;;;20.15;1.88;;;;;;;;;;5016367;28;20163;-26
2021/12/21 08:25:56;;;;;;;12.57;2.13;;;;;;;;;;4999152;28;20038;-26
2021/12/21 08:28:23;;;;;;;11.90;2.22;;;;;;;;;;5016643;28;20345;-26
2021/12/21 08:30:50;;;;;;;12.48;2.17;;;;;;;;;;5016611;28;20029;-26
2021/12/21 08:33:17;;;;;;;8.98;1.85;;;;;;;;;;5016184;28;20034;-26
2021/12/21 08:35:46;;;;;;;;;;;;;;;;;;4999822;28;20042;-26
2021/12/21 08:38:15;;;;;;;10.60;2.53;;;;;;;;;;5016157;28;20352;-26
2021/12/21 08:40:43;;;;;;;14.73;3.00;;;;;;;;;;5016503;28;20109;-26
2021/12/21 08:43:15;;;;;;;11.27;2.50;;;;;;;;;;5016058;28;20104;-25
2021/12/21 08:45:44;;;;;;;8.70;2.25;;;;;;;;;;5016176;28;20095;-25
2021/12/21 08:48:12;;;;;;;11.02;2.17;;;;;;;;;;5016410;28;20037;-25
2021/12/21 08:50:39;;;;;;;11.85;2.97;;;;;;;;;;5016386;28;20026;-25
2021/12/21 08:53:05;;;;;;;10.30;2.40;;;;;;;;;;5015990;28;20034;-25
2021/12/21 08:55:32;;;;;;;10.52;2.28;;;;;;;;;;4998501;28;20280;-25
2021/12/21 08:57:59;;;;;;;13.10;2.45;;;;;;;;;;5015938;28;20029;-25
2021/12/21 09:00:27;;;;;;;11.13;2.60;;;;;;;;;;4998358;28;20026;-25
2021/12/21 09:02:54;;;;;;;12.52;2.35;;;;;;;;;;5015334;28;20368;-25
2021/12/21 09:05:24;;;;;;;13.82;1.92;;;;;;;;;;4982256;28;20502;-25
2021/12/21 09:07:52;;;;;;;23.45;3.58;;;;;;;;;;5015490;28;20045;-25
2021/12/21 09:10:20;;;;;;;11.70;2.45;;;;;;;;;;5015534;28;20140;-26
2021/12/21 09:12:47;;;;;;;11.85;2.47;;;;;;;;;;5015257;28;20026;-25
2021/12/21 09:15:16;;;;;;;10.80;2.33;;;;;;;;;;5015425;28;20038;-25
2021/12/21 09:17:44;;;;;;;15.50;2.97;;;;;;;;;;5015509;28;20100;-25
2021/12/21 09:20:13;;;;;;;7.88;2.38;;;;;;;;;;5015518;28;20036;-25
2021/12/21 09:22:41;;;;;;;9.63;3.10;;;;;;;;;;5015092;28;20022;-25
2021/12/21 09:25:08;;;;;;;17.38;3.00;;;;;;;;;;5015656;28;20025;-25
2021/12/21 09:27:35;;;;;;;21.05;3.40;;;;;;;;;;5015323;28;20092;-25
2021/12/21 09:30:04;;;;;;;13.90;2.42;;;;;;;;;;5015359;28;20408;-25
2021/12/21 09:32:31;;;;;;;14.45;2.60;;;;;;;;;;4997956;28;20157;-25
2021/12/21 09:34:57;;;;;;;22.27;3.78;;;;;;;;;;4997982;28;20026;-25
2021/12/21 09:37:25;;;;;;;9.70;1.87;;;;;;;;;;4997983;28;20033;-25
2021/12/21 09:39:53;;;;;;;12.32;2.90;;;;;;;;;;5015203;28;20365;-26
2021/12/21 09:42:25;;;;;;;11.52;3.05;;;;;;;;;;5015141;28;20033;-28
2021/12/21 09:44:52;;;;;;;17.55;2.70;;;;;;;;;;5015229;28;20045;-26
2021/12/21 09:47:19;;;;;;;8.70;2.38;;;;;;;;;;4997810;28;20030;-26
2021/12/21 09:49:46;;;;;;;;;;;;;;;;;;5015794;28;20041;-27
2021/12/21 09:52:14;;;;;;;16.67;2.35;;;;;;;;;;4997381;28;19991;-26
2021/12/21 09:54:40;;;;;;;15.18;2.60;;;;;;;;;;5014485;28;20018;-26
2021/12/21 09:57:09;;;;;;;12.07;3.17;;;;;;;;;;5014223;28;20136;-26
2021/12/21 09:59:35;;;;;;;17.35;3.42;;;;;;;;;;4996760;28;20040;-26
2021/12/21 10:02:02;;;;;;;13.63;3.25;;;;;;;;;;5013838;28;20124;-26
2021/12/21 10:04:28;;;;;;;;;;;;;;;;;;5014220;28;20050;-26
2021/12/21 10:06:56;;;;;;;15.47;2.63;;;;;;;;;;4996527;28;19909;-25
2021/12/21 10:09:23;;;;;;;;;;;;;;;;;;5014256;28;20109;-25
2021/12/21 10:11:50;;;;;;;7.88;2.03;;;;;;;;;;5013700;28;19921;-25
2021/12/21 10:14:16;;;;;;;;;;;;;;;;;;5014205;28;20056;-24
2021/12/21 10:16:43;;;;;;;9.57;3.27;;;;;;;;;;5013855;28;19909;-26
2021/12/21 10:19:20;;;;;;;7.53;1.98;;;;;;;;;;5014221;28;20018;-25
2021/12/21 10:21:47;;;;;;;9.93;3.20;;;;;;;;;;4996244;28;20121;-25
2021/12/21 10:24:13;;;;;;;;;;;;;;;;;;4996593;28;20029;-25
2021/12/21 10:26:40;;;;;;;10.30;2.23;;;;;;;;;;4996274;28;19905;-26
2021/12/21 10:29:10;;;;;;;12.43;2.53;;;;;;;;;;4996203;28;20025;-25
2021/12/21 10:31:42;;;;;;;14.40;2.20;;;;;;;;;;5013502;28;20033;-25
2021/12/21 10:34:13;;;;;;;10.88;2.33;;;;;;;;;;4995590;28;20041;-25
2021/12/21 10:36:43;;;;;;;11.65;2.40;;;;;;;;;;5013965;28;20057;-26
2021/12/21 10:39:10;;;;;;;8.60;2.35;;;;;;;;;;5014087;28;20445;-26
2021/12/21 10:41:38;;;;;;;12.50;2.40;;;;;;;;;;4996970;28;20043;-24
2021/12/21 10:44:12;;;;;;;8.75;2.28;;;;;;;;;;5014304;28;20044;-25
2021/12/21 10:46:42;;;;;;;12.98;2.85;;;;;;;;;;5014511;28;20081;-25
2021/12/21 10:49:10;;;;;;;7.30;2.35;;;;;;;;;;5014297;28;20049;-25
2021/12/21 10:51:50;;;;;;;11.35;1.90;;;;;;;;;;5013977;28;20049;-24
2021/12/21 10:54:37;;;;;;;13.48;3.03;;;;;;;;;;4997271;28;20034;-25
2021/12/21 10:57:11;;;;;;;12.65;3.08;;;;;;;;;;5013845;28;20105;-25
2021/12/21 10:59:42;;;;;;;15.68;2.88;;;;;;;;;;5013894;28;20026;-25
2021/12/21 11:02:11;;;;;;;16.88;2.90;;;;;;;;;;4996368;28;20037;-25
2021/12/21 11:04:39;;;;;;;13.15;3.35;;;;;;;;;;5013823;28;20409;-25
2021/12/21 11:07:28;;;;;;;12.27;2.13;;;;;;;;;;5013531;28;20037;-25
2021/12/21 11:09:55;;;;;;;7.32;1.92;;;;;;;;;;4996341;28;20116;-25
2021/12/21 11:12:23;;;;;;;12.35;2.42;;;;;;;;;;5014352;28;20056;-25
2021/12/21 11:14:50;;;;;;;14.88;2.38;;;;;;;;;;5013991;28;20416;-25
2021/12/21 11:17:17;;;;;;;15.00;3.33;;;;;;;;;;5014035;28;20025;-24
2021/12/21 11:19:43;;;;;;;16.83;2.00;;;;;;;;;;5013809;28;20058;-24
2021/12/21 11:22:10;;;;;;;19.75;3.15;;;;;;;;;;5013753;28;20084;-24
2021/12/21 11:24:39;;;;;;;10.38;2.15;;;;;;;;;;4996551;28;20058;-24
2021/12/21 11:27:06;;;;;;;9.50;2.80;;;;;;;;;;5013818;28;20034;-24
2021/12/21 11:29:34;;;;;;;15.30;2.30;;;;;;;;;;5013923;28;20029;-24
2021/12/21 11:32:02;;;;;;;22.48;2.75;;;;;;;;;;5013194;28;20038;-25
2021/12/21 11:34:34;;;;;;;10.75;2.28;;;;;;;;;;5014001;28;20038;-24
2021/12/21 11:39:46;;;;;;;10.05;2.40;;;;;;;;;;5013719;28;20108;-25
2021/12/21 11:42:33;;;;;;;15.10;3.15;;;;;;;;;;5013477;28;20030;-25
2021/12/21 11:45:09;;;;;;;7.65;2.45;;;;;;;;;;5013153;28;20030;-25
2021/12/21 11:47:38;;;;;;;10.45;2.55;;;;;;;;;;5017239;28;20041;-25
2021/12/21 11:50:06;;;;;;;9.80;2.53;;;;;;;;;;5017117;28;20109;-25
2021/12/21 11:52:43;;;;;;;12.13;2.13;;;;;;;;;;5017070;28;20095;-25
2021/12/21 11:55:09;;;;;;;15.82;2.78;;;;;;;;;;5017076;28;20453;-25
2021/12/21 11:57:36;;;;;;;8.75;2.58;;;;;;;;;;5016911;28;20109;-24
2021/12/21 12:00:10;;;;;;;21.00;4.03;;;;;;;;;;5016881;28;20041;-24
2021/12/21 12:02:37;;;;;;;15.32;2.40;;;;;;;;;;5016645;28;20040;-26
2021/12/21 12:05:14;;;;;;;19.40;2.63;;;;;;;;;;5017099;28;20121;-25
2021/12/21 12:07:41;;;;;;;11.98;2.42;;;;;;;;;;5016704;28;20362;-25
2021/12/21 12:10:16;;;;;;;13.35;2.63;;;;;;;;;;5016611;28;20161;-25
2021/12/21 12:12:42;;;;;;;12.68;2.45;;;;;;;;;;5016128;28;20358;-25
2021/12/21 12:15:10;;;;;;;11.67;2.43;;;;;;;;;;5015738;28;20026;-25
2021/12/21 12:17:49;;;;;;;14.00;2.42;;;;;;;;;;5016299;28;20288;-25
2021/12/21 12:20:16;;;;;;;11.35;2.45;;;;;;;;;;5015586;28;20432;-25
2021/12/21 12:22:43;;;;;;;8.13;2.05;;;;;;;;;;5015502;28;20104;-24
2021/12/21 12:25:20;;;;;;;8.55;2.38;;;;;;;;;;5015551;28;20037;-26
2021/12/21 12:27:48;;;;;;;12.75;2.17;;;;;;;;;;4998098;28;20475;-26
2021/12/21 12:30:17;;;;;;;12.93;2.92;;;;;;;;;;5015562;28;20030;-26
2021/12/21 12:32:47;;;;;;;12.32;2.33;;;;;;;;;;5015536;28;20113;-25
2021/12/21 12:35:20;;;;;;;18.50;2.47;;;;;;;;;;5015878;28;20042;-25
2021/12/21 12:37:57;;;;;;;7.93;2.70;;;;;;;;;;5016456;28;20453;-25
2021/12/21 12:40:31;;;;;;;10.43;2.15;;;;;;;;;;5016207;28;20091;-25
2021/12/21 12:43:04;;;;;;;11.38;2.35;;;;;;;;;;5016047;28;20132;-26
2021/12/21 12:45:38;;;;;;;10.20;2.22;;;;;;;;;;5016058;28;20049;-25
2021/12/21 12:48:17;;;;;;;9.43;2.10;;;;;;;;;;4998889;28;20036;-25
2021/12/21 12:50:45;;;;;;;12.10;1.92;;;;;;;;;;5015927;28;20494;-25
2021/12/21 12:53:11;;;;;;;8.18;2.92;;;;;;;;;;5015669;28;20058;-25
2021/12/21 12:55:43;;;;;;;10.53;1.93;;;;;;;;;;5015970;28;20102;-25
2021/12/21 12:58:20;;;;;;;15.02;2.33;;;;;;;;;;5015149;28;20026;-25
2021/12/21 13:00:53;;;;;;;10.50;1.90;;;;;;;;;;5016173;28;20404;-25
2021/12/21 13:03:21;;;;;;;10.75;2.75;;;;;;;;;;5015590;28;20528;-25
2021/12/21 13:05:53;;;;;;;17.17;2.42;;;;;;;;;;5015798;28;20105;-25
2021/12/21 13:08:23;;;;;;;34.35;5.05;;;;;;;;;;5015733;28;20113;-25
2021/12/21 13:10:51;;;;;;;18.80;3.45;;;;;;;;;;5015626;28;20045;-25
2021/12/21 13:13:18;;;;;;;25.05;3.67;;;;;;;;;;5015140;28;20317;-25
2021/12/21 13:15:46;;;;;;;18.70;2.78;;;;;;;;;;5015331;28;20026;-25
2021/12/21 13:18:19;;;;;;;14.18;2.70;;;;;;;;;;5015599;28;20044;-25
2021/12/21 13:20:48;;;;;;;15.27;2.40;;;;;;;;;;5015854;28;20058;-24
2021/12/21 13:23:16;;;;;;;12.90;2.65;;;;;;;;;;5015666;28;20033;-24
2021/12/21 13:26:01;;;;;;;12.60;2.00;;;;;;;;;;5015682;28;20480;-25
2021/12/21 13:28:30;;;;;;;15.45;2.63;;;;;;;;;;5015510;28;20025;-24
2021/12/21 13:30:57;;;;;;;12.00;2.15;;;;;;;;;;4997829;28;20095;-24
2021/12/21 13:33:28;;;;;;;11.52;2.17;;;;;;;;;;4997717;28;20034;-24
2021/12/21 13:35:57;;;;;;;22.00;2.80;;;;;;;;;;5014963;28;20033;-24
2021/12/21 13:38:25;;;;;;;10.75;2.40;;;;;;;;;;4997801;28;20026;-25
2021/12/21 13:41:04;;;;;;;12.07;2.85;;;;;;;;;;5015166;28;20058;-25
2021/12/21 13:43:30;;;;;;;12.23;2.15;;;;;;;;;;5014945;28;20373;-30
2021/12/21 13:46:06;;;;;;;8.95;2.30;;;;;;;;;;4997523;28;20117;-25
2021/12/21 13:48:33;;;;;;;15.93;1.73;;;;;;;;;;5015161;28;20112;-25
2021/12/21 13:50:59;;;;;;;;;;;;;;;;;;5015060;28;20030;-26
2021/12/21 13:53:25;;;;;;;13.67;2.17;;;;;;;;;;5014671;28;19932;-25
2021/12/21 13:55:53;;;;;;;11.27;2.72;;;;;;;;;;5014623;28;20088;-25
2021/12/21 13:58:22;;;;;;;11.77;2.40;;;;;;;;;;5014663;28;20014;-25
2021/12/21 14:00:53;;;;;;;14.35;2.72;;;;;;;;;;5014826;28;20109;-26
2021/12/21 14:03:31;;;;;;;15.13;1.98;;;;;;;;;;5014497;28;20133;-26
2021/12/21 14:06:08;;;;;;;16.95;2.70;;;;;;;;;;4998140;28;20119;-25
2021/12/21 14:08:35;;;;;;;12.43;2.03;;;;;;;;;;5013967;28;20034;-24
2021/12/21 14:11:02;;;;;;;14.05;2.50;;;;;;;;;;5014521;28;20073;-25
2021/12/21 14:13:33;;;;;;;11.70;1.70;;;;;;;;;;5014591;28;20106;-26
2021/12/21 14:16:07;;;;;;;17.48;2.78;;;;;;;;;;5014534;28;20022;-25
2021/12/21 14:18:37;;;;;;;10.30;2.47;;;;;;;;;;5014628;28;20153;-25
2021/12/21 14:21:05;;;;;;;13.48;3.15;;;;;;;;;;5014256;28;20029;-25
2021/12/21 14:23:34;;;;;;;15.25;3.10;;;;;;;;;;5013876;28;20112;-25
2021/12/21 14:26:01;;;;;;;;;;;;;;;;;;5014383;28;20025;-25
2021/12/21 14:28:27;;;;;;;18.33;3.42;;;;;;;;;;4996702;28;19909;-25
2021/12/21 14:31:02;;;;;;;10.17;1.97;;;;;;;;;;5014541;28;20041;-25
2021/12/21 14:33:49;;;;;;;14.88;3.22;;;;;;;;;;5014452;28;20751;-25
2021/12/21 14:36:19;;;;;;;17.17;2.70;;;;;;;;;;5014274;28;20101;-25
2021/12/21 14:38:53;;;;;;;14.70;2.45;;;;;;;;;;4996845;28;20030;-26
2021/12/21 14:41:23;;;;;;;17.60;2.35;;;;;;;;;;5014453;28;20029;-25
2021/12/21 14:44:00;;;;;;;13.82;2.92;;;;;;;;;;5014314;28;20026;-25
2021/12/21 14:46:27;;;;;;;18.53;2.87;;;;;;;;;;5014170;28;20479;-25
2021/12/21 14:48:58;;;;;;;9.77;2.28;;;;;;;;;;5014105;28;20109;-25
2021/12/21 14:51:25;;;;;;;15.23;2.40;;;;;;;;;;5014223;28;20081;-24
2021/12/21 14:54:06;;;;;;;15.80;3.40;;;;;;;;;;5013719;28;20044;-25
2021/12/21 14:56:35;;;;;;;11.02;3.13;;;;;;;;;;5014388;28;20022;-26
2021/12/21 14:59:03;;;;;;;13.35;2.40;;;;;;;;;;5014118;28;20029;-26
2021/12/21 15:02:03;;;;;;;26.20;3.78;;;;;;;;;;5013895;28;20022;-25
2021/12/21 15:04:30;;;;;;;19.88;2.88;;;;;;;;;;5013583;28;20050;-25
2021/12/21 15:06:58;;;;;;;;;;;;;;;;;;5014654;28;20076;-26
2021/12/21 15:09:24;;;;;;;14.85;2.40;;;;;;;;;;5013962;28;20004;-25
2021/12/21 15:11:53;;;;;;;16.77;2.30;;;;;;;;;;5014153;28;20026;-26
2021/12/21 15:14:19;;;;;;;17.70;2.85;;;;;;;;;;4996140;28;20034;-25
2021/12/21 15:16:46;;;;;;;11.82;2.63;;;;;;;;;;5013649;28;20449;-25
2021/12/21 15:19:13;;;;;;;20.08;2.72;;;;;;;;;;5013567;28;20026;-26
2021/12/21 15:21:42;;;;;;;12.55;2.40;;;;;;;;;;5016309;28;20511;-26
2021/12/21 15:24:08;;;;;;;17.00;2.22;;;;;;;;;;5017511;28;20033;-25
2021/12/21 15:26:35;;;;;;;9.48;2.00;;;;;;;;;;5017107;28;20033;-26
2021/12/21 15:29:02;;;;;;;13.48;2.47;;;;;;;;;;5017172;28;20110;-26
2021/12/21 15:31:29;;;;;;;16.10;2.75;;;;;;;;;;5016781;28;20041;-26
2021/12/21 15:33:56;;;;;;;27.20;4.00;;;;;;;;;;5016747;28;20054;-27
2021/12/21 15:36:25;;;;;;;;;;;;;;;;;;5017734;28;20357;-25
2021/12/21 15:38:54;;;;;;;17.92;3.13;;;;;;;;;;5017496;28;20302;-26
2021/12/21 15:41:21;;;;;;;14.43;2.97;;;;;;;;;;5000050;28;20110;-25
2021/12/21 15:43:48;;;;;;;10.65;2.30;;;;;;;;;;5017263;28;20337;-24
2021/12/21 15:46:18;;;;;;;20.93;3.37;;;;;;;;;;4983438;28;20065;-25